Airfield :
LOGIN :

Register | Disclaimer

   EN    FR    IT 

 










Legend :    VFR   Marginal VFR   IFR   Intensive IFR   Very Intensive IFR
Visi :
Ceiling :
>= 8 km
>= 3000ft
5 to 8 km
1000 to 3000 ft
1500m to 5 km
500 to 1000 ft
800 to 1500m
200 to 500 ft
< 800m
< 200 ft
Symbols :   Thunderstorms  Fog  Heavy snow  Heavy precipitations  Wind > 20 kt
SIGMETs :     Misc.  Thunderstorms  Icing  Turbulence  Mountain Waves  Volcanic Ashes







- Airport Elevation : 26 ft
- IATA code : KLX


LGKL - Kalamata AB

CURRENT METAR :
  • 150550Z 12007KT 9999 FEW020TCU SCT030 16/08 Q1014

EXPIRED METARs :
  • 150520Z 13006KT 9999 FEW018CB SCT025 16/08 Q1014
  • 150450Z 12006KT 9999 TS FEW018CB 16/08 Q1014
  • 150420Z 14009KT 9999 FEW025 17/10 Q1014
  • 150350Z 16011KT 9999 FEW025 17/09 Q1014
  • 150320Z AUTO 15007KT //// // ////// 17/10 Q1014 RE//

TAF TAF LGKL
Valid from the 15 at 06:00 until the 15 at 15:00 UTC


150500Z 1506/1515 15020KT 8000 SCT020 BKN080
PROB40
TEMPO 1506/1515 8000 RA
PROB30
TEMPO 1506/1515 5000 TSRA FEW016CB SCT020 BKN080
No reported NOTAMs for that airfield.
1 SIGMET reported for the Athinai FIR (LGGG) :
 
Embedded thunderstorms
LGGG SIGMET 2 VALID 150259/150659 LGAT
LGGG ATHINAI FIR/UIR EMBD TS OBS N OF N3700 AND W OF E02130 STNR NC=



MET'MAP, your aeronautical weather chart ! - Copyright ORBIFLY December 2007 - Disclaimer

ORBIFLY MET'MAP TEAM :

Programming & Development : Alexandra Zaïnal
Concept & Development : Baudouin d'Aumeries
Co-Development & Prog : Marc-Olivier Méhu
Technical & hardware support : Manuel Goepfert

Contact : metmap@orbifly.com




SOURCES & CREDITS :

   NOAA